createdAt,value
2023-01-03T00:01:15.071Z,100.00
2023-01-03T00:03:42.195Z,100.00
2023-01-03T00:06:36.732Z,100.00
2023-01-03T00:09:09.510Z,100.00
2023-01-03T00:11:56.680Z,100.00
2023-01-03T00:14:27.110Z,100.00
2023-01-03T00:16:57.647Z,100.00
2023-01-03T00:19:26.620Z,100.00
2023-01-03T00:21:53.676Z,100.00
2023-01-03T00:24:20.548Z,100.00
2023-01-03T00:26:47.599Z,100.00
2023-01-03T00:29:14.944Z,100.00
2023-01-03T00:31:42.145Z,100.00
2023-01-03T00:34:09.615Z,100.00
2023-01-03T00:36:36.719Z,100.00
2023-01-03T00:39:03.811Z,100.00
2023-01-03T00:41:30.753Z,100.00
2023-01-03T00:43:57.555Z,100.00
2023-01-03T00:46:24.571Z,100.00
2023-01-03T00:48:51.384Z,100.00
2023-01-03T00:51:23.194Z,100.00
2023-01-03T00:53:52.311Z,100.00
2023-01-03T00:56:21.141Z,100.00
2023-01-03T00:58:48.892Z,100.00
2023-01-03T01:01:16.403Z,100.00
2023-01-03T01:03:48.508Z,100.00
2023-01-03T01:06:22.329Z,100.00
2023-01-03T01:08:50.856Z,100.00
2023-01-03T01:11:18.153Z,100.00
2023-01-03T01:13:46.066Z,100.00
2023-01-03T01:16:18.028Z,100.00
2023-01-03T01:18:47.512Z,100.00
2023-01-03T01:21:21.987Z,100.00
2023-01-03T01:23:49.102Z,100.00
2023-01-03T01:26:18.309Z,100.00
2023-01-03T01:28:45.326Z,100.00
2023-01-03T01:31:25.916Z,100.00
2023-01-03T01:33:54.606Z,100.00
2023-01-03T01:36:28.918Z,100.00
2023-01-03T01:39:00.770Z,100.00
2023-01-03T01:41:49.489Z,100.00
2023-01-03T01:44:54.002Z,100.00
2023-01-03T01:47:39.058Z,100.00
2023-01-03T01:50:20.789Z,100.00
2023-01-03T01:53:07.375Z,100.00
2023-01-03T01:55:42.832Z,100.00
2023-01-03T01:58:11.032Z,100.00
2023-01-03T02:00:38.314Z,100.00
2023-01-03T02:03:05.982Z,100.00
2023-01-03T02:05:37.329Z,100.00
2023-01-03T02:08:04.871Z,100.00
2023-01-03T02:10:37.440Z,100.00
2023-01-03T02:13:24.493Z,100.00
2023-01-03T02:16:28.682Z,100.00
2023-01-03T02:19:21.968Z,100.00
2023-01-03T02:22:25.960Z,100.00
2023-01-03T02:25:24.589Z,100.00
2023-01-03T02:28:06.421Z,100.00
2023-01-03T02:30:35.838Z,100.00
2023-01-03T02:33:14.514Z,100.00
2023-01-03T02:36:12.247Z,100.00
2023-01-03T02:38:43.505Z,100.00
2023-01-03T02:41:30.292Z,100.00
2023-01-03T02:44:22.848Z,100.00
2023-01-03T02:46:54.593Z,100.00
2023-01-03T02:49:21.322Z,100.00
2023-01-03T02:51:54.580Z,100.00
2023-01-03T02:54:30.974Z,100.00
2023-01-03T02:57:00.438Z,100.00
2023-01-03T02:59:53.501Z,100.00
2023-01-03T03:02:26.350Z,100.00
2023-01-03T03:04:56.996Z,100.00
2023-01-03T03:07:36.672Z,100.00
2023-01-03T03:10:23.683Z,100.00
2023-01-03T03:13:14.072Z,100.00
2023-01-03T03:15:49.969Z,100.00
2023-01-03T03:18:22.314Z,100.00
2023-01-03T03:21:07.768Z,100.00
2023-01-03T03:23:56.371Z,100.00
2023-01-03T03:26:37.308Z,100.00
2023-01-03T03:29:12.724Z,100.00
2023-01-03T03:31:46.582Z,100.00
2023-01-03T03:34:35.879Z,100.00
2023-01-03T03:37:14.797Z,100.00
2023-01-03T03:40:00.345Z,100.00
2023-01-03T03:43:14.006Z,100.00
2023-01-03T03:46:03.584Z,100.00
2023-01-03T03:48:59.054Z,100.00
2023-01-03T03:51:32.775Z,100.00
2023-01-03T03:54:04.455Z,100.00
2023-01-03T03:56:35.575Z,100.00
2023-01-03T03:59:10.155Z,100.00
2023-01-03T04:01:40.543Z,100.00
2023-01-03T04:04:13.687Z,100.00
2023-01-03T04:06:48.012Z,100.00
2023-01-03T04:09:15.365Z,100.00
2023-01-03T04:11:42.705Z,100.00
2023-01-03T04:14:09.475Z,100.00
2023-01-03T04:16:37.800Z,100.00
2023-01-03T04:19:05.291Z,100.00
2023-01-03T04:21:32.226Z,100.00
2023-01-03T04:23:58.923Z,100.00
2023-01-03T04:26:25.611Z,100.00
2023-01-03T04:28:52.305Z,100.00
2023-01-03T04:31:19.072Z,100.00
2023-01-03T04:33:45.753Z,100.00
2023-01-03T04:36:12.403Z,100.00
2023-01-03T04:38:39.125Z,100.00
2023-01-03T04:41:08.002Z,100.00
2023-01-03T04:43:53.578Z,100.00
2023-01-03T04:46:20.514Z,100.00
2023-01-03T04:48:47.345Z,100.00
2023-01-03T04:51:14.386Z,100.00
2023-01-03T04:53:41.024Z,100.00
2023-01-03T04:56:08.051Z,100.00
2023-01-03T04:58:35.078Z,100.00
2023-01-03T05:01:03.490Z,100.00
2023-01-03T05:03:31.451Z,100.00
2023-01-03T05:06:02.686Z,100.00
2023-01-03T05:08:29.706Z,100.00
2023-01-03T05:10:56.552Z,100.00
2023-01-03T05:13:23.651Z,100.00
2023-01-03T05:15:50.413Z,100.00
2023-01-03T05:18:17.309Z,100.00
2023-01-03T05:21:03.834Z,100.00
2023-01-03T05:23:49.446Z,100.00
2023-01-03T05:26:21.919Z,100.00
2023-01-03T05:28:52.295Z,100.00
2023-01-03T05:31:19.541Z,100.00
2023-01-03T05:33:46.521Z,100.00
2023-01-03T05:36:13.204Z,100.00
2023-01-03T05:38:39.911Z,100.00
2023-01-03T05:41:07.257Z,100.00
2023-01-03T05:43:34.234Z,100.00
2023-01-03T05:46:00.915Z,100.00
2023-01-03T05:48:27.659Z,100.00
2023-01-03T05:50:57.474Z,100.00
2023-01-03T05:53:24.672Z,100.00
2023-01-03T05:55:51.418Z,100.00
2023-01-03T05:58:18.144Z,100.00
2023-01-03T06:00:44.790Z,100.00
2023-01-03T06:03:11.580Z,100.00
2023-01-03T06:05:38.254Z,100.00
2023-01-03T06:08:04.959Z,100.00
2023-01-03T06:10:31.645Z,100.00
2023-01-03T06:12:58.456Z,100.00
2023-01-03T06:15:25.160Z,100.00
2023-01-03T06:17:55.117Z,100.00
2023-01-03T06:20:21.916Z,100.00
2023-01-03T06:22:48.639Z,100.00
2023-01-03T06:25:15.637Z,100.00
2023-01-03T06:27:42.318Z,100.00
2023-01-03T06:30:09.848Z,100.00
2023-01-03T06:32:36.553Z,100.00
2023-01-03T06:35:03.298Z,100.00
2023-01-03T06:37:30.004Z,100.00
2023-01-03T06:39:56.829Z,100.00
2023-01-03T06:42:44.387Z,100.00
2023-01-03T06:45:32.873Z,100.00
2023-01-03T06:48:25.681Z,100.00
2023-01-03T06:51:11.295Z,100.00
2023-01-03T06:53:41.259Z,100.00
2023-01-03T06:56:08.956Z,100.00
2023-01-03T06:58:36.643Z,100.00
2023-01-03T07:01:04.920Z,100.00
2023-01-03T07:03:32.744Z,100.00
2023-01-03T07:05:59.831Z,100.00
2023-01-03T07:08:26.532Z,100.00
2023-01-03T07:10:54.526Z,100.00
2023-01-03T07:13:39.631Z,100.00
2023-01-03T07:16:06.617Z,100.00
2023-01-03T07:18:34.095Z,100.00
2023-01-03T07:21:00.863Z,100.00
2023-01-03T07:23:27.550Z,100.00
2023-01-03T07:25:57.262Z,100.00
2023-01-03T07:28:24.115Z,100.00
2023-01-03T07:30:50.797Z,100.00
2023-01-03T07:33:18.779Z,100.00
2023-01-03T07:35:45.967Z,100.00
2023-01-03T07:38:13.718Z,100.00
2023-01-03T07:40:40.417Z,100.00
2023-01-03T07:43:27.219Z,100.00
2023-01-03T07:45:53.940Z,100.00
2023-01-03T07:48:20.697Z,100.00
2023-01-03T07:50:47.539Z,100.00
2023-01-03T07:53:16.969Z,100.00
2023-01-03T07:55:45.442Z,100.00
2023-01-03T07:58:12.472Z,100.00
2023-01-03T08:00:40.143Z,100.00
2023-01-03T08:03:10.752Z,100.00
2023-01-03T08:05:38.475Z,100.00
2023-01-03T08:08:05.841Z,100.00
2023-01-03T08:10:51.354Z,100.00
2023-01-03T08:13:18.272Z,100.00
2023-01-03T08:15:56.712Z,100.00
2023-01-03T08:18:25.802Z,100.00
2023-01-03T08:20:55.507Z,100.00
2023-01-03T08:23:23.838Z,100.00
2023-01-03T08:25:50.792Z,100.00
2023-01-03T08:28:17.684Z,100.00
2023-01-03T08:30:49.709Z,100.00
2023-01-03T08:33:18.661Z,100.00
2023-01-03T08:36:07.236Z,100.00
2023-01-03T08:38:41.073Z,100.00
2023-01-03T08:41:11.914Z,100.00
2023-01-03T08:43:41.632Z,100.00
2023-01-03T08:46:10.122Z,100.00
2023-01-03T08:48:37.137Z,100.00
2023-01-03T08:51:04.254Z,100.00
2023-01-03T08:53:30.854Z,100.00
2023-01-03T08:55:57.544Z,100.00
2023-01-03T08:58:24.295Z,100.00
2023-01-03T09:00:50.925Z,100.00
2023-01-03T09:03:17.802Z,100.00
2023-01-03T09:05:44.562Z,100.00
2023-01-03T09:08:11.195Z,100.00
2023-01-03T09:10:47.057Z,100.00
2023-01-03T09:13:14.404Z,100.00
2023-01-03T09:15:41.315Z,100.00
2023-01-03T09:18:08.987Z,100.00
2023-01-03T09:20:35.855Z,100.00
2023-01-03T09:23:02.613Z,100.00
2023-01-03T09:25:34.866Z,100.00
2023-01-03T09:28:03.751Z,100.00
2023-01-03T09:30:30.387Z,100.00
2023-01-03T09:32:57.232Z,100.00
2023-01-03T09:35:24.143Z,100.00
2023-01-03T09:37:51.026Z,100.00
2023-01-03T09:40:17.925Z,100.00
2023-01-03T09:43:03.530Z,100.00
2023-01-03T09:45:34.291Z,100.00
2023-01-03T09:48:03.377Z,100.00
2023-01-03T09:50:57.148Z,100.00
2023-01-03T09:53:49.281Z,100.00
2023-01-03T09:56:34.613Z,100.00
2023-01-03T09:59:29.662Z,100.00
2023-01-03T10:02:40.893Z,100.00
2023-01-03T10:06:01.963Z,100.00
2023-01-03T10:08:47.408Z,100.00
2023-01-03T10:11:31.004Z,100.00
2023-01-03T10:14:36.741Z,100.00
2023-01-03T10:17:27.679Z,100.00
2023-01-03T10:20:03.048Z,100.00
2023-01-03T10:22:31.942Z,100.00
2023-01-03T10:25:04.448Z,100.00
2023-01-03T10:27:38.160Z,100.00
2023-01-03T10:30:13.029Z,100.00
2023-01-03T10:32:42.921Z,100.00
2023-01-03T10:35:22.227Z,100.00
2023-01-03T10:37:52.237Z,100.00
2023-01-03T10:40:19.620Z,100.00
2023-01-03T10:42:49.571Z,99.78
2023-01-03T10:45:21.820Z,99.93
2023-01-03T10:48:01.785Z,100.00
2023-01-03T10:50:29.633Z,100.00
2023-01-03T10:53:09.375Z,100.00
2023-01-03T10:55:48.920Z,100.00
2023-01-03T10:58:22.307Z,100.00
2023-01-03T11:00:49.701Z,100.00
2023-01-03T11:03:21.285Z,100.00
2023-01-03T11:06:07.388Z,98.87
2023-01-03T11:08:42.837Z,95.22
2023-01-03T11:11:27.370Z,87.96
2023-01-03T11:14:20.353Z,84.42
2023-01-03T11:16:59.027Z,82.33
2023-01-03T11:19:31.585Z,85.76
2023-01-03T11:22:13.555Z,89.66
2023-01-03T11:25:24.468Z,92.17
2023-01-03T11:28:19.254Z,94.97
2023-01-03T11:30:45.845Z,95.07
2023-01-03T11:33:29.495Z,95.61
2023-01-03T11:36:14.457Z,95.74
2023-01-03T11:38:52.572Z,97.03
2023-01-03T11:41:40.461Z,96.54
2023-01-03T11:44:25.589Z,97.31
2023-01-03T11:46:58.314Z,96.46
2023-01-03T11:49:44.364Z,98.17
2023-01-03T11:52:16.884Z,98.97
2023-01-03T11:55:11.484Z,97.84
2023-01-03T11:58:15.216Z,98.04
2023-01-03T12:01:02.035Z,96.85
2023-01-03T12:03:44.105Z,96.30
2023-01-03T12:06:28.961Z,96.73
2023-01-03T12:09:05.032Z,96.88
2023-01-03T12:12:07.782Z,97.15
2023-01-03T12:14:47.666Z,96.89
2023-01-03T12:17:23.542Z,94.78
2023-01-03T12:19:52.971Z,94.24
2023-01-03T12:22:35.678Z,96.22
2023-01-03T12:25:28.489Z,96.54
2023-01-03T12:28:14.744Z,97.62
2023-01-03T12:30:59.184Z,97.91
2023-01-03T12:33:46.778Z,97.91
2023-01-03T12:36:19.177Z,97.45
2023-01-03T12:39:08.219Z,95.88
2023-01-03T12:41:42.626Z,95.53
2023-01-03T12:44:19.332Z,95.21
2023-01-03T12:46:51.466Z,94.81
2023-01-03T12:49:30.303Z,95.25
2023-01-03T12:51:57.057Z,94.50
2023-01-03T12:54:47.787Z,94.90
2023-01-03T12:57:57.191Z,95.38
2023-01-03T13:00:48.017Z,94.34
2023-01-03T13:03:26.754Z,95.17
2023-01-03T13:06:11.254Z,95.16
2023-01-03T13:08:53.699Z,94.58
2023-01-03T13:11:32.590Z,94.43
2023-01-03T13:14:20.763Z,94.26
2023-01-03T13:16:50.077Z,94.02
2023-01-03T13:19:22.676Z,93.59
2023-01-03T13:21:55.316Z,92.93
2023-01-03T13:24:49.339Z,93.09
2023-01-03T13:27:22.927Z,92.60
2023-01-03T13:29:49.581Z,91.53
2023-01-03T13:32:22.241Z,92.24
2023-01-03T13:34:55.177Z,91.89
2023-01-03T13:37:42.946Z,93.16
2023-01-03T13:41:07.434Z,93.61
2023-01-03T13:43:26.855Z,92.69
2023-01-03T13:45:56.477Z,92.79
2023-01-03T13:48:24.981Z,93.03
2023-01-03T13:51:14.856Z,93.13
2023-01-03T13:53:55.673Z,93.23
2023-01-03T13:56:25.269Z,93.03
2023-01-03T13:58:57.872Z,93.29
2023-01-03T14:01:47.967Z,93.64
2023-01-03T14:04:32.879Z,93.40
2023-01-03T14:07:16.624Z,93.48
2023-01-03T14:10:13.603Z,93.00
2023-01-03T14:13:04.878Z,91.58
2023-01-03T14:15:33.019Z,91.93
2023-01-03T14:18:21.160Z,92.35
2023-01-03T14:20:53.934Z,93.98
2023-01-03T14:23:58.450Z,94.32
2023-01-03T14:26:17.947Z,93.66
2023-01-03T14:28:54.473Z,93.99
2023-01-03T14:31:27.582Z,94.55
2023-01-03T14:34:01.133Z,94.59
2023-01-03T14:36:28.680Z,95.87
2023-01-03T14:38:58.270Z,95.47
2023-01-03T14:41:39.305Z,95.47
2023-01-03T14:44:16.570Z,93.89
2023-01-03T14:46:53.690Z,94.52
2023-01-03T14:49:43.809Z,95.05
2023-01-03T14:52:41.029Z,94.63
2023-01-03T14:55:15.728Z,95.98
2023-01-03T14:57:43.874Z,95.80
2023-01-03T15:00:20.031Z,96.00
2023-01-03T15:02:48.830Z,95.97
2023-01-03T15:05:32.345Z,96.20
2023-01-03T15:08:31.620Z,96.24
2023-01-03T15:11:06.069Z,96.46
2023-01-03T15:13:47.811Z,96.31
2023-01-03T15:16:31.556Z,95.73
2023-01-03T15:19:27.340Z,95.40
2023-01-03T15:22:08.910Z,95.89
2023-01-03T15:24:43.454Z,96.50
2023-01-03T15:27:37.971Z,96.54
2023-01-03T15:30:22.333Z,96.62
2023-01-03T15:32:53.429Z,96.07
2023-01-03T15:35:41.319Z,96.53
2023-01-03T15:38:19.816Z,96.38
2023-01-03T15:40:49.570Z,96.16
2023-01-03T15:43:19.778Z,95.87
2023-01-03T15:46:02.445Z,96.48
2023-01-03T15:48:31.726Z,96.57
2023-01-03T15:50:59.667Z,96.65
2023-01-03T15:53:37.930Z,96.24
2023-01-03T15:56:24.507Z,96.65
2023-01-03T15:58:54.984Z,97.70
2023-01-03T16:01:23.644Z,96.97
2023-01-03T16:03:51.445Z,97.50
2023-01-03T16:06:18.731Z,98.54
2023-01-03T16:08:45.981Z,98.08
2023-01-03T16:11:20.667Z,97.94
2023-01-03T16:14:00.752Z,98.45
2023-01-03T16:16:40.631Z,98.99
2023-01-03T16:19:08.112Z,99.23
2023-01-03T16:21:34.819Z,99.50
2023-01-03T16:24:05.000Z,100.00
2023-01-03T16:26:31.661Z,100.00
2023-01-03T16:28:59.495Z,100.00
2023-01-03T16:31:32.586Z,100.00
2023-01-03T16:33:59.590Z,100.00
2023-01-03T16:36:38.302Z,100.00
2023-01-03T16:39:20.761Z,100.00
2023-01-03T16:42:09.286Z,100.00
2023-01-03T16:44:37.931Z,100.00
2023-01-03T16:47:11.169Z,100.00
2023-01-03T16:49:37.824Z,100.00
2023-01-03T16:52:04.731Z,100.00
2023-01-03T16:54:31.708Z,100.00
2023-01-03T16:56:58.333Z,100.00
2023-01-03T16:59:25.209Z,100.00
2023-01-03T17:01:52.132Z,100.00
2023-01-03T17:04:19.073Z,100.00
2023-01-03T17:06:45.868Z,100.00
2023-01-03T17:09:22.878Z,100.00
2023-01-03T17:11:49.733Z,100.00
2023-01-03T17:14:21.247Z,100.00
2023-01-03T17:16:48.773Z,100.00
2023-01-03T17:22:18.871Z,100.00
2023-01-03T17:24:46.332Z,100.00
2023-01-03T17:27:19.797Z,100.00
2023-01-03T17:29:49.200Z,100.00
2023-01-03T17:32:18.811Z,100.00
2023-01-03T17:34:45.583Z,100.00
2023-01-03T17:37:21.449Z,100.00
2023-01-03T17:39:59.707Z,100.00
2023-01-03T17:42:28.914Z,100.00
2023-01-03T17:45:14.424Z,100.00
2023-01-03T17:48:02.437Z,100.00
2023-01-03T17:50:31.325Z,100.00
2023-01-03T17:53:00.176Z,100.00
2023-01-03T17:55:29.150Z,100.00
2023-01-03T17:57:57.053Z,100.00
2023-01-03T18:00:26.476Z,100.00
2023-01-03T18:03:10.160Z,100.00
2023-01-03T18:05:37.012Z,100.00
2023-01-03T18:08:04.222Z,100.00
2023-01-03T18:10:45.814Z,100.00
2023-01-03T18:13:35.534Z,100.00
2023-01-03T18:16:02.997Z,100.00
2023-01-03T18:18:31.306Z,100.00
2023-01-03T18:20:59.898Z,100.00
2023-01-03T18:23:31.609Z,100.00
2023-01-03T18:26:02.816Z,100.00
2023-01-03T18:28:29.897Z,100.00
2023-01-03T18:30:57.594Z,100.00
2023-01-03T18:33:24.737Z,100.00
2023-01-03T18:35:52.696Z,100.00
2023-01-03T18:38:31.363Z,100.00
2023-01-03T18:41:04.507Z,100.00
2023-01-03T18:43:33.388Z,100.00
2023-01-03T18:46:00.279Z,100.00
2023-01-03T18:48:27.192Z,100.00
2023-01-03T18:50:58.922Z,100.00
2023-01-03T18:53:31.601Z,99.84
2023-01-03T18:55:59.253Z,99.68
2023-01-03T18:58:39.267Z,98.94
2023-01-03T19:01:06.591Z,97.88
2023-01-03T19:03:35.504Z,97.11
2023-01-03T19:06:06.520Z,97.14
2023-01-03T19:08:33.972Z,95.89
2023-01-03T19:11:13.103Z,95.85
2023-01-03T19:13:54.020Z,95.76
2023-01-03T19:16:26.301Z,95.64
2023-01-03T19:18:53.402Z,94.97
2023-01-03T19:21:22.205Z,93.63
2023-01-03T19:24:03.691Z,92.63
2023-01-03T19:26:45.950Z,91.01
2023-01-03T19:29:22.282Z,90.79
2023-01-03T19:31:53.256Z,90.62
2023-01-03T19:34:24.736Z,90.30
2023-01-03T19:36:52.082Z,89.80
2023-01-03T19:39:24.778Z,89.78
2023-01-03T19:42:16.992Z,90.46
2023-01-03T19:44:43.996Z,89.20
2023-01-03T19:47:16.786Z,89.96
2023-01-03T19:49:49.188Z,89.73
2023-01-03T19:52:17.075Z,89.04
2023-01-03T19:54:43.944Z,88.84
2023-01-03T19:57:22.899Z,88.26
2023-01-03T19:59:56.890Z,87.91
2023-01-03T20:02:33.218Z,88.43
2023-01-03T20:05:00.950Z,87.68
2023-01-03T20:07:27.767Z,87.46
2023-01-03T20:09:54.602Z,87.64
2023-01-03T20:12:30.034Z,86.71
2023-01-03T20:15:02.856Z,86.67
2023-01-03T20:17:33.457Z,86.60
2023-01-03T20:20:00.275Z,86.78
2023-01-03T20:25:37.967Z,86.13
2023-01-03T20:28:05.174Z,85.02
2023-01-03T20:30:33.602Z,85.46
2023-01-03T20:33:02.852Z,84.81
2023-01-03T20:38:24.966Z,85.46
2023-01-03T20:40:53.103Z,85.53
2023-01-03T20:43:22.720Z,85.22
2023-01-03T20:45:54.934Z,85.72
2023-01-03T20:48:25.932Z,86.37
2023-01-03T20:50:53.462Z,86.36
2023-01-03T20:53:23.980Z,86.71
2023-01-03T20:55:53.247Z,87.93
2023-01-03T20:58:22.284Z,87.97
2023-01-03T21:00:49.094Z,88.64
2023-01-03T21:03:16.259Z,89.08
2023-01-03T21:05:43.181Z,89.37
2023-01-03T21:08:33.637Z,88.69
2023-01-03T21:11:00.371Z,89.39
2023-01-03T21:13:27.168Z,88.96
2023-01-03T21:15:53.953Z,89.01
2023-01-03T21:18:20.652Z,89.11
2023-01-03T21:20:47.440Z,89.40
2023-01-03T21:23:23.137Z,89.02
2023-01-03T21:25:50.233Z,89.24
2023-01-03T21:28:17.054Z,88.77
2023-01-03T21:30:43.786Z,89.19
2023-01-03T21:33:19.542Z,89.53
2023-01-03T21:35:46.732Z,90.23
2023-01-03T21:38:13.567Z,90.45
2023-01-03T21:40:40.505Z,90.84
2023-01-03T21:43:07.563Z,91.26
2023-01-03T21:45:38.523Z,91.16
2023-01-03T21:48:08.239Z,91.44
2023-01-03T21:50:38.493Z,91.36
2023-01-03T21:53:05.632Z,91.62
2023-01-03T21:55:32.926Z,91.74
2023-01-03T21:58:00.767Z,91.32
2023-01-03T22:00:27.422Z,91.61
2023-01-03T22:03:12.520Z,91.06
2023-01-03T22:05:39.258Z,91.37
2023-01-03T22:08:06.731Z,90.84
2023-01-03T22:10:34.623Z,90.17
2023-01-03T22:13:06.683Z,90.00
2023-01-03T22:15:36.528Z,89.71
2023-01-03T22:18:03.577Z,89.97
2023-01-03T22:20:34.809Z,90.33
2023-01-03T22:23:06.977Z,89.88
2023-01-03T22:25:33.995Z,89.48
2023-01-03T22:28:00.670Z,89.76
2023-01-03T22:30:27.632Z,89.61
2023-01-03T22:32:57.465Z,89.31
2023-01-03T22:35:24.230Z,89.56
2023-01-03T22:37:51.037Z,89.35
2023-01-03T22:40:18.117Z,89.80
2023-01-03T22:42:44.760Z,89.71
2023-01-03T22:45:11.740Z,89.58
2023-01-03T22:47:38.718Z,89.93
2023-01-03T22:50:07.484Z,89.22
2023-01-03T22:52:35.532Z,89.31
2023-01-03T22:55:02.427Z,89.72
2023-01-03T22:57:29.113Z,89.92
2023-01-03T22:59:55.845Z,89.87
2023-01-03T23:02:28.522Z,89.25
2023-01-03T23:04:55.953Z,88.94
2023-01-03T23:07:22.709Z,89.48
2023-01-03T23:09:49.427Z,89.47
2023-01-03T23:12:34.866Z,88.72
2023-01-03T23:15:01.491Z,88.48
2023-01-03T23:17:46.717Z,88.65
2023-01-03T23:20:13.356Z,88.23
2023-01-03T23:22:40.060Z,87.89
2023-01-03T23:25:06.909Z,87.91
2023-01-03T23:27:33.548Z,87.93
2023-01-03T23:30:00.210Z,87.78
2023-01-03T23:32:26.928Z,87.93
2023-01-03T23:34:53.605Z,87.09
2023-01-03T23:37:20.411Z,87.29
2023-01-03T23:39:47.211Z,87.27
2023-01-03T23:42:13.833Z,87.33
2023-01-03T23:44:40.563Z,86.57
2023-01-03T23:47:12.333Z,87.17
2023-01-03T23:49:39.709Z,86.95
2023-01-03T23:52:06.638Z,86.77
2023-01-03T23:54:33.459Z,86.53
2023-01-03T23:57:00.132Z,87.12
2023-01-03T23:59:26.804Z,87.32
